Eiwamaru — JG5742 — position and weather

sailwx.info

Track history (hours):
 
Tides and Currents Weather Stations Pressure Air Temp Water Temp Dewpoint Dewpoint Depression Visibility Wind Speed Wind Dir Waves Ship Positions

Eiwamaru

Last reported at 2015-Feb-27 06:32 UTC. Time now 2015-Feb-27 07:29 UTC.
Position N 35°32' E 139°46'.

Length 80 m; draft 5.4 m.

Type: Tanker. MMSI: 431101045.

Date/timePositionNaut miles runAvg speedWind from/ knotsBaromVisibWave heightAir tempDewpointWater temp
2015-Feb-27 06:32N 35°32' E 139°46'0 0.0
2015-Feb-27 05:33N 35°32' E 139°46'0 0.0
2015-Feb-27 04:33N 35°32' E 139°46'0 0.0
2015-Feb-27 03:33N 35°32' E 139°46'0 0.0
2015-Feb-27 02:33N 35°32' E 139°46'0 0.0
2015-Feb-27 01:33N 35°32' E 139°46'0 0.0
2015-Feb-27 00:33N 35°32' E 139°46'1 1.0
2015-Feb-26 23:33N 35°31' E 139°46'2 2.2
2015-Feb-26 22:33N 35°29' E 139°48'0 0.0
2015-Feb-26 21:33N 35°29' E 139°48'0 0.0
2015-Feb-26 20:33N 35°29' E 139°48'0 0.0
2015-Feb-26 19:33N 35°29' E 139°48'0 0.0
2015-Feb-26 18:33N 35°29' E 139°48'0 0.0
2015-Feb-26 17:29N 35°29' E 139°48'0 0.0
2015-Feb-26 16:33N 35°29' E 139°48'0 0.0
2015-Feb-26 15:33N 35°29' E 139°48'0 0.0
2015-Feb-26 14:31N 35°29' E 139°48'0 0.0
2015-Feb-26 13:27N 35°29' E 139°48'0 0.0
2015-Feb-26 12:25N 35°29' E 139°48'0 0.0
2015-Feb-26 11:30N 35°29' E 139°48'0 0.0
2015-Feb-26 10:33N 35°29' E 139°48'0 0.0
2015-Feb-26 08:33N 35°29' E 139°48'0 0.0
2015-Feb-26 07:33N 35°29' E 139°48'4 3.9
2015-Feb-26 06:33N 35°25' E 139°47'1110.9
2015-Feb-26 05:33N 35°14' E 139°47'1111.4
2015-Feb-26 04:33N 35°04' E 139°42'24110.8
2015-Feb-25 06:11N 34°02' E 134°60'913.2
2015-Feb-25 05:30N 34°11' E 134°59'1711.5
2015-Feb-25 04:03N 34°26' E 135°08'713.1
2015-Feb-25 03:31N 34°29' E 135°15'10 8.8
2015-Feb-25 02:26N 34°33' E 135°26'0 0.0
2015-Feb-25 01:33N 34°33' E 135°26'0 0.0
2015-Feb-25 00:32N 34°33' E 135°26'0 0.0
2015-Feb-24 23:30N 34°33' E 135°26'0 0.5
2015-Feb-24 22:33N 34°33' E 135°26'5 4.8
2015-Feb-24 21:33N 34°32' E 135°20'1 1.2
2015-Feb-24 20:33N 34°32' E 135°18'0 0.0
2015-Feb-24 19:33N 34°32' E 135°18'0 0.0
2015-Feb-24 18:33N 34°32' E 135°18'0 0.0
2015-Feb-24 17:33N 34°32' E 135°18'0 0.0
2015-Feb-24 16:34N 34°32' E 135°18'6 6.2
2015-Feb-24 15:33N 34°28' E 135°13'1413.9
2015-Feb-24 14:32N 34°18' E 135°00'1313.4
2015-Feb-24 13:34N 34°05' E 134°60'24410.6
2015-Feb-23 14:30N 35°12' E 139°46'1212.3
2015-Feb-23 13:34N 35°23' E 139°42'9 8.9
2015-Feb-23 12:34N 35°32' E 139°46'0 0.0
2015-Feb-23 11:33N 35°32' E 139°46'0 0.0
2015-Feb-23 10:33N 35°32' E 139°46'0 0.0
2015-Feb-23 09:33N 35°32' E 139°46'0 0.0
2015-Feb-23 08:29N 35°32' E 139°46'1 0.9
2015-Feb-23 07:33N 35°31' E 139°46'1110.9
2015-Feb-23 06:31N 35°31' E 140°00'1 0.2
2015-Feb-23 00:20N 35°32' E 139°58'0 0.0
2015-Feb-22 13:10N 35°32' E 139°58'0 0.0
2015-Feb-22 12:30N 35°32' E 139°58'0 0.0
2015-Feb-22 10:33N 35°32' E 139°58'0 0.1
2015-Feb-22 09:32N 35°32' E 139°58'0 0.0
2015-Feb-22 08:31N 35°32' E 139°58'0 0.0
2015-Feb-22 07:32N 35°32' E 139°58'0 0.0
2015-Feb-22 05:21N 35°32' E 139°58'0 0.1
2015-Feb-22 04:26N 35°32' E 139°58'5 5.7
2015-Feb-22 03:30N 35°30' E 139°52'5 4.9
2015-Feb-22 02:33N 35°31' E 139°46'0 0.0
2015-Feb-22 01:33N 35°31' E 139°46'0 0.0
2015-Feb-22 00:33N 35°31' E 139°46'0 0.0
2015-Feb-21 23:33N 35°31' E 139°46'0 0.0
2015-Feb-21 22:33N 35°31' E 139°46'4 4.3
2015-Feb-21 21:33N 35°30' E 139°52'6 0.2
2015-Feb-20 08:13N 35°31' E 139°58'913.2
2015-Feb-20 07:33N 35°27' E 139°49'1111.1
2015-Feb-20 06:34N 35°16' E 139°47'1312.4
2015-Feb-20 05:33N 35°04' E 139°42'23610.7
2015-Feb-19 07:33N 34°06' E 135°05'2 1.0
2015-Feb-19 05:19N 34°07' E 135°07'0 0.0
2015-Feb-19 04:32N 34°07' E 135°07'0 0.0
2015-Feb-19 03:26N 34°07' E 135°07'0 0.5
2015-Feb-19 02:33N 34°07' E 135°08'0 0.0
2015-Feb-19 01:29N 34°07' E 135°08'0 0.0
2015-Feb-19 00:32N 34°07' E 135°08'0 0.0
2015-Feb-18 23:33N 34°07' E 135°08'0 0.0
2015-Feb-18 22:31N 34°07' E 135°08'0 0.0
2015-Feb-18 21:30N 34°07' E 135°08'0 0.0
2015-Feb-18 20:26N 34°07' E 135°08'0 0.0
2015-Feb-18 19:29N 34°07' E 135°08'0 0.0
2015-Feb-18 18:33N 34°07' E 135°08'0 0.0
2015-Feb-18 17:30N 34°07' E 135°08'0 0.0
2015-Feb-18 16:31N 34°07' E 135°08'0 0.0
2015-Feb-18 15:33N 34°07' E 135°08'0 0.0
2015-Feb-18 14:32N 34°07' E 135°08'0 0.0
2015-Feb-18 13:32N 34°07' E 135°08'0 0.0
2015-Feb-18 12:32N 34°07' E 135°08'0 0.0
2015-Feb-18 11:31N 34°07' E 135°08'0 0.0
2015-Feb-18 10:32N 34°07' E 135°08'0 0.0
2015-Feb-18 09:32N 34°07' E 135°08'0 0.1
2015-Feb-18 08:33N 34°07' E 135°08'225 9.8
2015-Feb-17 09:30N 35°02' E 139°33'1313.3
2015-Feb-17 08:33N 35°10' E 139°44'1211.8
2015-Feb-17 07:33N 35°22' E 139°42'  
Track history (hours):
 
Tides and Currents Weather Stations Pressure Air Temp Water Temp Dewpoint Dewpoint Depression Visibility Wind Speed Wind Dir Waves Ship Positions

Eiwamaru

Last reported at 2015-Feb-27 06:32 UTC. Time now 2015-Feb-27 07:29 UTC.
Position N 35°32' E 139°46'.

Length 80 m; draft 5.4 m.

Type: Tanker. MMSI: 431101045.

Date/timePositionNaut miles runAvg speedWind from/ knotsBaromVisibWave heightAir tempDewpointWater temp
2015-Feb-27 06:32N 35°32' E 139°46'0 0.0
2015-Feb-27 05:33N 35°32' E 139°46'0 0.0
2015-Feb-27 04:33N 35°32' E 139°46'0 0.0
2015-Feb-27 03:33N 35°32' E 139°46'0 0.0
2015-Feb-27 02:33N 35°32' E 139°46'0 0.0
2015-Feb-27 01:33N 35°32' E 139°46'0 0.0
2015-Feb-27 00:33N 35°32' E 139°46'1 1.0
2015-Feb-26 23:33N 35°31' E 139°46'2 2.2
2015-Feb-26 22:33N 35°29' E 139°48'0 0.0
2015-Feb-26 21:33N 35°29' E 139°48'0 0.0
2015-Feb-26 20:33N 35°29' E 139°48'0 0.0
2015-Feb-26 19:33N 35°29' E 139°48'0 0.0
2015-Feb-26 18:33N 35°29' E 139°48'0 0.0
2015-Feb-26 17:29N 35°29' E 139°48'0 0.0
2015-Feb-26 16:33N 35°29' E 139°48'0 0.0
2015-Feb-26 15:33N 35°29' E 139°48'0 0.0
2015-Feb-26 14:31N 35°29' E 139°48'0 0.0
2015-Feb-26 13:27N 35°29' E 139°48'0 0.0
2015-Feb-26 12:25N 35°29' E 139°48'0 0.0
2015-Feb-26 11:30N 35°29' E 139°48'0 0.0
2015-Feb-26 10:33N 35°29' E 139°48'0 0.0
2015-Feb-26 08:33N 35°29' E 139°48'0 0.0
2015-Feb-26 07:33N 35°29' E 139°48'4 3.9
2015-Feb-26 06:33N 35°25' E 139°47'1110.9
2015-Feb-26 05:33N 35°14' E 139°47'1111.4
2015-Feb-26 04:33N 35°04' E 139°42'24110.8
2015-Feb-25 06:11N 34°02' E 134°60'913.2
2015-Feb-25 05:30N 34°11' E 134°59'1711.5
2015-Feb-25 04:03N 34°26' E 135°08'713.1
2015-Feb-25 03:31N 34°29' E 135°15'10 8.8
2015-Feb-25 02:26N 34°33' E 135°26'0 0.0
2015-Feb-25 01:33N 34°33' E 135°26'0 0.0
2015-Feb-25 00:32N 34°33' E 135°26'0 0.0
2015-Feb-24 23:30N 34°33' E 135°26'0 0.5
2015-Feb-24 22:33N 34°33' E 135°26'5 4.8
2015-Feb-24 21:33N 34°32' E 135°20'1 1.2
2015-Feb-24 20:33N 34°32' E 135°18'0 0.0
2015-Feb-24 19:33N 34°32' E 135°18'0 0.0
2015-Feb-24 18:33N 34°32' E 135°18'0 0.0
2015-Feb-24 17:33N 34°32' E 135°18'0 0.0
2015-Feb-24 16:34N 34°32' E 135°18'6 6.2
2015-Feb-24 15:33N 34°28' E 135°13'1413.9
2015-Feb-24 14:32N 34°18' E 135°00'1313.4
2015-Feb-24 13:34N 34°05' E 134°60'24410.6
2015-Feb-23 14:30N 35°12' E 139°46'1212.3
2015-Feb-23 13:34N 35°23' E 139°42'9 8.9
2015-Feb-23 12:34N 35°32' E 139°46'0 0.0
2015-Feb-23 11:33N 35°32' E 139°46'0 0.0
2015-Feb-23 10:33N 35°32' E 139°46'0 0.0
2015-Feb-23 09:33N 35°32' E 139°46'0 0.0
2015-Feb-23 08:29N 35°32' E 139°46'1 0.9
2015-Feb-23 07:33N 35°31' E 139°46'1110.9
2015-Feb-23 06:31N 35°31' E 140°00'1 0.2
2015-Feb-23 00:20N 35°32' E 139°58'0 0.0
2015-Feb-22 13:10N 35°32' E 139°58'0 0.0
2015-Feb-22 12:30N 35°32' E 139°58'0 0.0
2015-Feb-22 10:33N 35°32' E 139°58'0 0.1
2015-Feb-22 09:32N 35°32' E 139°58'0 0.0
2015-Feb-22 08:31N 35°32' E 139°58'0 0.0
2015-Feb-22 07:32N 35°32' E 139°58'0 0.0
2015-Feb-22 05:21N 35°32' E 139°58'0 0.1
2015-Feb-22 04:26N 35°32' E 139°58'5 5.7
2015-Feb-22 03:30N 35°30' E 139°52'5 4.9
2015-Feb-22 02:33N 35°31' E 139°46'0 0.0
2015-Feb-22 01:33N 35°31' E 139°46'0 0.0
2015-Feb-22 00:33N 35°31' E 139°46'0 0.0
2015-Feb-21 23:33N 35°31' E 139°46'0 0.0
2015-Feb-21 22:33N 35°31' E 139°46'4 4.3
2015-Feb-21 21:33N 35°30' E 139°52'6 0.2
2015-Feb-20 08:13N 35°31' E 139°58'913.2
2015-Feb-20 07:33N 35°27' E 139°49'1111.1
2015-Feb-20 06:34N 35°16' E 139°47'1312.4
2015-Feb-20 05:33N 35°04' E 139°42'23610.7
2015-Feb-19 07:33N 34°06' E 135°05'2 1.0
2015-Feb-19 05:19N 34°07' E 135°07'0 0.0
2015-Feb-19 04:32N 34°07' E 135°07'0 0.0
2015-Feb-19 03:26N 34°07' E 135°07'0 0.5
2015-Feb-19 02:33N 34°07' E 135°08'0 0.0
2015-Feb-19 01:29N 34°07' E 135°08'0 0.0
2015-Feb-19 00:32N 34°07' E 135°08'0 0.0
2015-Feb-18 23:33N 34°07' E 135°08'0 0.0
2015-Feb-18 22:31N 34°07' E 135°08'0 0.0
2015-Feb-18 21:30N 34°07' E 135°08'0 0.0
2015-Feb-18 20:26N 34°07' E 135°08'0 0.0
2015-Feb-18 19:29N 34°07' E 135°08'0 0.0
2015-Feb-18 18:33N 34°07' E 135°08'0 0.0
2015-Feb-18 17:30N 34°07' E 135°08'0 0.0
2015-Feb-18 16:31N 34°07' E 135°08'0 0.0
2015-Feb-18 15:33N 34°07' E 135°08'0 0.0
2015-Feb-18 14:32N 34°07' E 135°08'0 0.0
2015-Feb-18 13:32N 34°07' E 135°08'0 0.0
2015-Feb-18 12:32N 34°07' E 135°08'0 0.0
2015-Feb-18 11:31N 34°07' E 135°08'0 0.0
2015-Feb-18 10:32N 34°07' E 135°08'0 0.0
2015-Feb-18 09:32N 34°07' E 135°08'0 0.1
2015-Feb-18 08:33N 34°07' E 135°08'225 9.8
2015-Feb-17 09:30N 35°02' E 139°33'1313.3
2015-Feb-17 08:33N 35°10' E 139°44'1211.8
2015-Feb-17 07:33N 35°22' E 139°42'  

Dump ship's entire track history